sensor_id;sensor_type;location;lat;lon;timestamp;P1;durP1;ratioP1;P2;durP2;ratioP2
60718;SDS011;46567;51.660;5.824;2022-10-18T00:08:10;7.7;;;5.8;;
60718;SDS011;46567;51.660;5.824;2022-10-18T00:18:10;8.2;;;5.4;;
60718;SDS011;46567;51.660;5.824;2022-10-18T00:28:10;6.8;;;5.0;;
60718;SDS011;46567;51.660;5.824;2022-10-18T00:48:12;9.9;;;5.4;;
60718;SDS011;46567;51.660;5.824;2022-10-18T00:58:10;8.6;;;4.8;;
60718;SDS011;46567;51.660;5.824;2022-10-18T01:08:15;7.2;;;5.1;;
60718;SDS011;46567;51.660;5.824;2022-10-18T01:18:41;6.9;;;5.2;;
60718;SDS011;46567;51.660;5.824;2022-10-18T01:28:14;6.3;;;4.7;;
60718;SDS011;46567;51.660;5.824;2022-10-18T01:38:10;5.4;;;4.8;;
60718;SDS011;46567;51.660;5.824;2022-10-18T01:48:10;7.5;;;4.9;;
60718;SDS011;46567;51.660;5.824;2022-10-18T01:58:17;7.0;;;4.5;;
60718;SDS011;46567;51.660;5.824;2022-10-18T02:08:16;7.8;;;5.9;;
60718;SDS011;46567;51.660;5.824;2022-10-18T02:28:10;7.0;;;5.3;;
60718;SDS011;46567;51.660;5.824;2022-10-18T02:38:10;7.3;;;5.6;;
60718;SDS011;46567;51.660;5.824;2022-10-18T02:48:34;9.2;;;5.6;;
60718;SDS011;46567;51.660;5.824;2022-10-18T02:58:10;9.6;;;6.3;;
60718;SDS011;46567;51.660;5.824;2022-10-18T03:08:10;8.9;;;5.5;;
60718;SDS011;46567;51.660;5.824;2022-10-18T03:28:10;10.6;;;6.5;;
60718;SDS011;46567;51.660;5.824;2022-10-18T03:38:10;7.7;;;6.7;;
60718;SDS011;46567;51.660;5.824;2022-10-18T03:48:10;11.3;;;7.4;;
60718;SDS011;46567;51.660;5.824;2022-10-18T03:58:10;11.3;;;6.9;;
60718;SDS011;46567;51.660;5.824;2022-10-18T04:08:10;9.6;;;7.2;;
60718;SDS011;46567;51.660;5.824;2022-10-18T04:18:10;11.5;;;7.9;;
60718;SDS011;46567;51.660;5.824;2022-10-18T04:28:10;9.7;;;7.3;;
60718;SDS011;46567;51.660;5.824;2022-10-18T04:38:10;15.7;;;8.9;;
60718;SDS011;46567;51.660;5.824;2022-10-18T04:48:10;21.9;;;11.0;;
60718;SDS011;46567;51.660;5.824;2022-10-18T04:58:10;22.4;;;12.1;;
60718;SDS011;46567;51.660;5.824;2022-10-18T05:08:10;21.4;;;12.6;;
60718;SDS011;46567;51.660;5.824;2022-10-18T05:18:34;17.1;;;11.7;;
60718;SDS011;46567;51.660;5.824;2022-10-18T05:28:10;18.9;;;12.3;;
60718;SDS011;46567;51.660;5.824;2022-10-18T05:38:36;31.5;;;13.4;;
60718;SDS011;46567;51.660;5.824;2022-10-18T05:48:10;19.6;;;11.3;;
60718;SDS011;46567;51.660;5.824;2022-10-18T05:58:10;41.6;;;12.0;;
60718;SDS011;46567;51.660;5.824;2022-10-18T06:08:10;30.1;;;12.3;;
60718;SDS011;46567;51.660;5.824;2022-10-18T06:18:10;32.4;;;12.4;;
60718;SDS011;46567;51.660;5.824;2022-10-18T06:28:10;33.5;;;13.0;;
60718;SDS011;46567;51.660;5.824;2022-10-18T06:38:34;26.0;;;12.7;;
60718;SDS011;46567;51.660;5.824;2022-10-18T06:48:10;38.7;;;14.5;;
60718;SDS011;46567;51.660;5.824;2022-10-18T07:08:35;37.9;;;12.3;;
60718;SDS011;46567;51.660;5.824;2022-10-18T07:18:35;30.3;;;10.9;;
60718;SDS011;46567;51.660;5.824;2022-10-18T07:28:34;32.8;;;12.0;;
60718;SDS011;46567;51.660;5.824;2022-10-18T07:38:10;30.6;;;12.9;;
60718;SDS011;46567;51.660;5.824;2022-10-18T07:48:10;25.2;;;12.4;;
60718;SDS011;46567;51.660;5.824;2022-10-18T07:58:10;32.4;;;13.7;;
60718;SDS011;46567;51.660;5.824;2022-10-18T08:08:10;27.3;;;12.1;;
60718;SDS011;46567;51.660;5.824;2022-10-18T08:18:10;31.1;;;16.2;;
60718;SDS011;46567;51.660;5.824;2022-10-18T08:28:10;33.6;;;16.6;;
60718;SDS011;46567;51.660;5.824;2022-10-18T08:48:18;28.0;;;17.1;;
60718;SDS011;46567;51.660;5.824;2022-10-18T08:58:21;28.3;;;16.3;;
60718;SDS011;46567;51.660;5.824;2022-10-18T09:08:46;24.6;;;14.8;;
60718;SDS011;46567;51.660;5.824;2022-10-18T09:18:12;22.2;;;13.7;;
60718;SDS011;46567;51.660;5.824;2022-10-18T09:28:13;21.2;;;13.4;;
60718;SDS011;46567;51.660;5.824;2022-10-18T09:38:12;20.6;;;12.2;;
60718;SDS011;46567;51.660;5.824;2022-10-18T09:48:39;18.7;;;11.8;;
60718;SDS011;46567;51.660;5.824;2022-10-18T09:58:10;21.0;;;11.5;;
60718;SDS011;46567;51.660;5.824;2022-10-18T10:08:34;18.8;;;9.4;;
60718;SDS011;46567;51.660;5.824;2022-10-18T10:18:16;18.3;;;10.4;;
60718;SDS011;46567;51.660;5.824;2022-10-18T10:28:11;15.6;;;7.0;;
60718;SDS011;46567;51.660;5.824;2022-10-18T10:38:22;12.1;;;6.0;;
60718;SDS011;46567;51.660;5.824;2022-10-18T10:48:11;13.5;;;5.2;;
60718;SDS011;46567;51.660;5.824;2022-10-18T10:58:16;6.2;;;2.3;;
60718;SDS011;46567;51.660;5.824;2022-10-18T11:08:12;3.7;;;1.5;;
60718;SDS011;46567;51.660;5.824;2022-10-18T11:18:23;5.7;;;2.6;;
60718;SDS011;46567;51.660;5.824;2022-10-18T11:28:11;4.1;;;2.0;;
60718;SDS011;46567;51.660;5.824;2022-10-18T11:38:36;7.4;;;2.7;;
60718;SDS011;46567;51.660;5.824;2022-10-18T11:48:11;7.9;;;1.8;;
60718;SDS011;46567;51.660;5.824;2022-10-18T11:58:41;5.7;;;1.6;;
60718;SDS011;46567;51.660;5.824;2022-10-18T12:08:11;6.0;;;2.0;;
60718;SDS011;46567;51.660;5.824;2022-10-18T12:18:11;7.7;;;2.7;;
60718;SDS011;46567;51.660;5.824;2022-10-18T12:28:14;5.2;;;1.9;;
60718;SDS011;46567;51.660;5.824;2022-10-18T12:38:29;6.0;;;1.7;;
60718;SDS011;46567;51.660;5.824;2022-10-18T12:48:15;4.2;;;1.4;;
60718;SDS011;46567;51.660;5.824;2022-10-18T12:58:26;6.2;;;1.5;;
60718;SDS011;46567;51.660;5.824;2022-10-18T13:08:36;5.6;;;2.2;;
60718;SDS011;46567;51.660;5.824;2022-10-18T13:18:16;8.4;;;1.7;;
60718;SDS011;46567;51.660;5.824;2022-10-18T13:28:21;4.6;;;1.5;;
60718;SDS011;46567;51.660;5.824;2022-10-18T13:38:23;6.0;;;1.8;;
60718;SDS011;46567;51.660;5.824;2022-10-18T13:48:44;7.6;;;1.7;;
60718;SDS011;46567;51.660;5.824;2022-10-18T13:58:39;5.7;;;1.2;;
60718;SDS011;46567;51.660;5.824;2022-10-18T14:08:11;3.8;;;1.3;;
60718;SDS011;46567;51.660;5.824;2022-10-18T14:18:14;6.7;;;1.2;;
60718;SDS011;46567;51.660;5.824;2022-10-18T14:28:11;4.1;;;1.1;;
60718;SDS011;46567;51.660;5.824;2022-10-18T14:38:12;2.6;;;1.0;;
60718;SDS011;46567;51.660;5.824;2022-10-18T14:48:12;5.4;;;1.2;;
60718;SDS011;46567;51.660;5.824;2022-10-18T14:58:10;5.9;;;1.2;;
60718;SDS011;46567;51.660;5.824;2022-10-18T15:08:10;8.7;;;1.5;;
60718;SDS011;46567;51.660;5.824;2022-10-18T15:18:20;8.0;;;1.5;;
60718;SDS011;46567;51.660;5.824;2022-10-18T15:28:16;2.8;;;1.1;;
60718;SDS011;46567;51.660;5.824;2022-10-18T15:38:12;4.8;;;1.0;;
60718;SDS011;46567;51.660;5.824;2022-10-18T15:48:16;5.2;;;1.1;;
60718;SDS011;46567;51.660;5.824;2022-10-18T15:58:11;6.1;;;1.0;;
60718;SDS011;46567;51.660;5.824;2022-10-18T16:08:18;4.8;;;1.1;;
60718;SDS011;46567;51.660;5.824;2022-10-18T16:28:11;4.0;;;1.0;;
60718;SDS011;46567;51.660;5.824;2022-10-18T16:38:12;3.5;;;1.3;;
60718;SDS011;46567;51.660;5.824;2022-10-18T16:48:12;3.6;;;0.8;;
60718;SDS011;46567;51.660;5.824;2022-10-18T16:58:16;5.3;;;0.9;;
60718;SDS011;46567;51.660;5.824;2022-10-18T17:08:12;3.7;;;1.5;;
60718;SDS011;46567;51.660;5.824;2022-10-18T17:18:10;5.6;;;1.2;;
60718;SDS011;46567;51.660;5.824;2022-10-18T17:28:11;4.8;;;1.1;;
60718;SDS011;46567;51.660;5.824;2022-10-18T17:38:10;4.4;;;1.3;;
60718;SDS011;46567;51.660;5.824;2022-10-18T17:48:10;4.4;;;1.5;;
60718;SDS011;46567;51.660;5.824;2022-10-18T17:58:10;9.7;;;1.9;;
60718;SDS011;46567;51.660;5.824;2022-10-18T18:08:10;3.3;;;1.6;;
60718;SDS011;46567;51.660;5.824;2022-10-18T18:18:10;10.3;;;2.6;;
60718;SDS011;46567;51.660;5.824;2022-10-18T18:28:10;5.6;;;2.2;;
60718;SDS011;46567;51.660;5.824;2022-10-18T18:38:10;7.3;;;2.5;;
60718;SDS011;46567;51.660;5.824;2022-10-18T18:48:10;8.8;;;3.0;;
60718;SDS011;46567;51.660;5.824;2022-10-18T18:58:10;8.4;;;2.8;;
60718;SDS011;46567;51.660;5.824;2022-10-18T19:08:10;4.4;;;2.6;;
60718;SDS011;46567;51.660;5.824;2022-10-18T19:18:10;5.5;;;2.3;;
60718;SDS011;46567;51.660;5.824;2022-10-18T19:28:10;5.6;;;3.0;;
60718;SDS011;46567;51.660;5.824;2022-10-18T19:38:10;7.6;;;3.5;;
60718;SDS011;46567;51.660;5.824;2022-10-18T19:48:10;5.1;;;2.7;;
60718;SDS011;46567;51.660;5.824;2022-10-18T20:18:10;7.8;;;3.9;;
60718;SDS011;46567;51.660;5.824;2022-10-18T20:38:10;12.4;;;4.1;;
60718;SDS011;46567;51.660;5.824;2022-10-18T20:48:10;6.3;;;3.7;;
60718;SDS011;46567;51.660;5.824;2022-10-18T21:08:10;8.0;;;3.3;;
60718;SDS011;46567;51.660;5.824;2022-10-18T21:18:10;4.8;;;3.3;;
60718;SDS011;46567;51.660;5.824;2022-10-18T21:38:35;4.8;;;3.5;;
60718;SDS011;46567;51.660;5.824;2022-10-18T21:48:10;8.9;;;3.8;;
60718;SDS011;46567;51.660;5.824;2022-10-18T21:58:10;7.7;;;3.4;;
60718;SDS011;46567;51.660;5.824;2022-10-18T22:08:10;5.7;;;3.4;;
60718;SDS011;46567;51.660;5.824;2022-10-18T22:18:10;5.6;;;3.4;;
60718;SDS011;46567;51.660;5.824;2022-10-18T22:28:10;8.5;;;3.9;;
60718;SDS011;46567;51.660;5.824;2022-10-18T22:48:35;6.6;;;3.3;;
60718;SDS011;46567;51.660;5.824;2022-10-18T22:58:35;8.6;;;3.5;;
60718;SDS011;46567;51.660;5.824;2022-10-18T23:08:12;7.7;;;3.0;;
60718;SDS011;46567;51.660;5.824;2022-10-18T23:18:35;4.5;;;2.7;;
60718;SDS011;46567;51.660;5.824;2022-10-18T23:28:10;7.3;;;2.9;;
60718;SDS011;46567;51.660;5.824;2022-10-18T23:38:10;5.2;;;2.7;;
60718;SDS011;46567;51.660;5.824;2022-10-18T23:48:10;3.9;;;2.7;;
60718;SDS011;46567;51.660;5.824;2022-10-18T23:58:35;3.4;;;2.4;;
